Portada
METAR-TAF:

METAR-TAF

Aeropuertos :

Yamena, Chad

Aeropuerto Internacional de Yamena

latitud: 12-08N, longitud: 015-02E, altitud: 295 m

Observación

El informe se hizo hace 25 minutos, a las 09:00 UTC
Viento 9 kt del suroeste con ráfagas de 20 kt, variando entre suroeste y noroeste
Temperatura 36°C
Humedad 33%
Presión 1010 hPa
Visibilidad 10 km o más
sin nubes por debajo de 1500 m y sin presencia de cumulonimbus.

METAR: FTTJ 190900Z 23009G20KT 230V320 CAVOK 36/17 Q1010 NOSIG

Hora: 10:25 (09:25 UTC)

Pronóstico

El informe se hizo hace 1 hora y 25 minutos, a las 08:00 UTC
Pronóstico válido del 19 a las 08 UTC al 20 a las 12 UTC
Viento 10 kt del oeste
Visibilidad: 8000 m
Evolucionando progresivamente
del 19 a las 11 UTC al 19 a las 13 UTC
Viento 8 kt del norte
Temporalmente
del 19 a las 16 UTC al 19 a las 19 UTC
Visibilidad: 4000 m
calima

TAF: FTTJ 190800Z 1908/2012 27010KT 8000 NSC BECMG 1911/1913 36008KT TEMPO 1916/1919 4000 HZ

Observaciones y pronósticos meteorológicos de más de 4000 aeropuertos (mensajes METAR y TAF).

Los puntos amarillos y rojos representan las estaciones disponibles.

Ponga el ratón en el punto deseado para ver el nombre de la estación.

Haga clic para ver las observaciones y los pronósticos meteorológicos.

Para cambiar el mapa : haga clic en los botones verdes con una cruz de color negro para hacer un zoom, en el botón verde con un guión para alejar o en las flechas verdes para mapas adyacentes.


METAR-TAF: